Kanchanaburi, Thailand
Current Conditions -  °F | °C
As of 7:00 PM on Sunday 21 Dec 2014 (Local Time) from VTBD Reporting Station
Scattered Clouds Scattered Clouds  
Wind Chill: 82°   Ceiling: Unl
Heat Index: 84°   Visibility: 6mi
Dew Point: 64°   Wind: 5mph
Humidity: 54%   Direction: 100°E
Pressure: 29.85"   Gusts: NA
Location:  14.02°N, 99.53°E
Report Text: VTBD 211200Z 10004KT 9999 FEW025 SCT300 28/18 Q1011 NOSIG
Loading
Personal Weather Stations






























Interactive Weather Map New forecast layout! Learn more

10-Day Weather Forecast

Advertisements
Track Severe Weather on mobile